sensor_id;sensor_type;location;lat;lon;timestamp;temperature;humidity
41939;DHT22;23057;48.554;14.454;2023-02-28T00:00:46;-2.90;99.90
41939;DHT22;23057;48.554;14.454;2023-02-28T00:03:17;-2.90;99.90
41939;DHT22;23057;48.554;14.454;2023-02-28T00:05:48;-2.90;99.90
41939;DHT22;23057;48.554;14.454;2023-02-28T00:08:18;-2.90;99.90
41939;DHT22;23057;48.554;14.454;2023-02-28T00:10:49;-2.90;99.90
41939;DHT22;23057;48.554;14.454;2023-02-28T00:13:20;-2.90;99.90
41939;DHT22;23057;48.554;14.454;2023-02-28T00:16:01;-2.90;99.90
41939;DHT22;23057;48.554;14.454;2023-02-28T00:18:35;-2.90;99.90
41939;DHT22;23057;48.554;14.454;2023-02-28T00:21:06;-2.90;99.90
41939;DHT22;23057;48.554;14.454;2023-02-28T00:23:38;-3.00;99.90
41939;DHT22;23057;48.554;14.454;2023-02-28T00:26:09;-3.00;99.90
41939;DHT22;23057;48.554;14.454;2023-02-28T00:28:40;-3.00;99.90
41939;DHT22;23057;48.554;14.454;2023-02-28T00:31:11;-3.00;99.90
41939;DHT22;23057;48.554;14.454;2023-02-28T00:33:41;-3.10;99.90
41939;DHT22;23057;48.554;14.454;2023-02-28T00:36:12;-3.10;99.90
41939;DHT22;23057;48.554;14.454;2023-02-28T00:38:43;-3.20;99.90
41939;DHT22;23057;48.554;14.454;2023-02-28T00:41:13;-3.20;99.90
41939;DHT22;23057;48.554;14.454;2023-02-28T00:43:44;-3.20;99.90
41939;DHT22;23057;48.554;14.454;2023-02-28T00:46:15;-3.40;99.90
41939;DHT22;23057;48.554;14.454;2023-02-28T00:48:46;-3.40;99.90
41939;DHT22;23057;48.554;14.454;2023-02-28T00:51:17;-3.40;99.90
41939;DHT22;23057;48.554;14.454;2023-02-28T00:53:47;-3.30;99.90
41939;DHT22;23057;48.554;14.454;2023-02-28T00:56:18;-3.30;99.90
41939;DHT22;23057;48.554;14.454;2023-02-28T00:58:49;-3.30;99.90
41939;DHT22;23057;48.554;14.454;2023-02-28T01:01:19;-3.40;99.90
41939;DHT22;23057;48.554;14.454;2023-02-28T01:03:50;-3.50;99.90
41939;DHT22;23057;48.554;14.454;2023-02-28T01:06:21;-3.40;99.90
41939;DHT22;23057;48.554;14.454;2023-02-28T01:08:52;-3.40;99.90
41939;DHT22;23057;48.554;14.454;2023-02-28T01:11:23;-3.40;99.90
41939;DHT22;23057;48.554;14.454;2023-02-28T01:13:53;-3.50;99.90
41939;DHT22;23057;48.554;14.454;2023-02-28T01:16:24;-3.50;99.90
41939;DHT22;23057;48.554;14.454;2023-02-28T01:18:56;-3.50;99.90
41939;DHT22;23057;48.554;14.454;2023-02-28T01:21:27;-3.50;99.90
41939;DHT22;23057;48.554;14.454;2023-02-28T01:23:59;-3.50;99.90
41939;DHT22;23057;48.554;14.454;2023-02-28T01:26:31;-3.50;99.90
41939;DHT22;23057;48.554;14.454;2023-02-28T01:29:02;-3.50;99.90
41939;DHT22;23057;48.554;14.454;2023-02-28T01:31:33;-3.40;99.90
41939;DHT22;23057;48.554;14.454;2023-02-28T01:34:04;-3.50;99.90
41939;DHT22;23057;48.554;14.454;2023-02-28T01:36:34;-3.40;99.90
41939;DHT22;23057;48.554;14.454;2023-02-28T01:39:06;-3.60;99.90
41939;DHT22;23057;48.554;14.454;2023-02-28T01:41:37;-3.60;99.90
41939;DHT22;23057;48.554;14.454;2023-02-28T01:47:55;-3.70;99.90
41939;DHT22;23057;48.554;14.454;2023-02-28T01:50:34;-3.70;99.90
41939;DHT22;23057;48.554;14.454;2023-02-28T01:53:12;-3.80;99.90
41939;DHT22;23057;48.554;14.454;2023-02-28T01:55:49;-3.70;99.90
41939;DHT22;23057;48.554;14.454;2023-02-28T01:58:23;-3.70;99.90
41939;DHT22;23057;48.554;14.454;2023-02-28T02:00:54;-3.70;99.90
41939;DHT22;23057;48.554;14.454;2023-02-28T02:03:25;-3.80;99.90
41939;DHT22;23057;48.554;14.454;2023-02-28T02:05:56;-3.80;99.90
41939;DHT22;23057;48.554;14.454;2023-02-28T02:08:28;-3.80;99.90
41939;DHT22;23057;48.554;14.454;2023-02-28T02:11:00;-3.70;99.90
41939;DHT22;23057;48.554;14.454;2023-02-28T02:16:41;-3.80;99.90
41939;DHT22;23057;48.554;14.454;2023-02-28T02:25:39;-3.80;99.90
41939;DHT22;23057;48.554;14.454;2023-02-28T02:40:27;-3.90;99.90
41939;DHT22;23057;48.554;14.454;2023-02-28T02:43:12;-4.00;99.90
41939;DHT22;23057;48.554;14.454;2023-02-28T02:45:54;-4.00;99.90
41939;DHT22;23057;48.554;14.454;2023-02-28T02:48:33;-4.00;99.90
41939;DHT22;23057;48.554;14.454;2023-02-28T02:51:10;-4.10;99.90
41939;DHT22;23057;48.554;14.454;2023-02-28T02:53:52;-4.10;1.00
41939;DHT22;23057;48.554;14.454;2023-02-28T02:56:31;-4.00;99.90
41939;DHT22;23057;48.554;14.454;2023-02-28T02:59:04;-4.20;99.90
41939;DHT22;23057;48.554;14.454;2023-02-28T03:01:41;-4.30;99.90
41939;DHT22;23057;48.554;14.454;2023-02-28T03:04:14;-4.20;99.90
41939;DHT22;23057;48.554;14.454;2023-02-28T03:06:52;-4.30;99.90
41939;DHT22;23057;48.554;14.454;2023-02-28T03:09:26;-4.20;99.90
41939;DHT22;23057;48.554;14.454;2023-02-28T03:11:56;-4.30;99.90
41939;DHT22;23057;48.554;14.454;2023-02-28T03:20:39;-4.00;99.90
41939;DHT22;23057;48.554;14.454;2023-02-28T03:23:35;-4.30;99.90
41939;DHT22;23057;48.554;14.454;2023-02-28T03:26:19;-4.20;99.90
41939;DHT22;23057;48.554;14.454;2023-02-28T03:31:44;-4.20;99.90
41939;DHT22;23057;48.554;14.454;2023-02-28T03:34:34;-4.10;99.90
41939;DHT22;23057;48.554;14.454;2023-02-28T03:37:14;-4.10;99.90
41939;DHT22;23057;48.554;14.454;2023-02-28T03:39:57;-4.20;99.90
41939;DHT22;23057;48.554;14.454;2023-02-28T03:42:37;-4.20;1.00
41939;DHT22;23057;48.554;14.454;2023-02-28T03:45:13;-4.20;1.00
41939;DHT22;23057;48.554;14.454;2023-02-28T03:47:53;-4.30;1.00
41939;DHT22;23057;48.554;14.454;2023-02-28T03:50:36;-4.30;1.00
41939;DHT22;23057;48.554;14.454;2023-02-28T03:53:21;-4.40;1.00
41939;DHT22;23057;48.554;14.454;2023-02-28T03:56:16;-4.30;1.00
41939;DHT22;23057;48.554;14.454;2023-02-28T04:01:49;-4.50;1.00
41939;DHT22;23057;48.554;14.454;2023-02-28T04:04:21;-4.50;1.00
41939;DHT22;23057;48.554;14.454;2023-02-28T04:06:52;-4.50;1.00
41939;DHT22;23057;48.554;14.454;2023-02-28T04:09:37;-4.50;1.00
41939;DHT22;23057;48.554;14.454;2023-02-28T04:12:08;-4.60;1.00
41939;DHT22;23057;48.554;14.454;2023-02-28T04:14:39;-4.60;1.00
41939;DHT22;23057;48.554;14.454;2023-02-28T04:17:10;-4.70;26.30
41939;DHT22;23057;48.554;14.454;2023-02-28T04:19:40;-4.70;38.60
41939;DHT22;23057;48.554;14.454;2023-02-28T04:22:11;-4.80;82.40
41939;DHT22;23057;48.554;14.454;2023-02-28T04:24:42;-4.80;99.90
41939;DHT22;23057;48.554;14.454;2023-02-28T04:27:13;-4.80;99.90
41939;DHT22;23057;48.554;14.454;2023-02-28T04:29:45;-4.80;99.90
41939;DHT22;23057;48.554;14.454;2023-02-28T04:32:17;-4.80;99.90
41939;DHT22;23057;48.554;14.454;2023-02-28T04:34:47;-4.80;99.90
41939;DHT22;23057;48.554;14.454;2023-02-28T04:37:18;-4.70;99.90
41939;DHT22;23057;48.554;14.454;2023-02-28T04:39:49;-4.80;99.90
41939;DHT22;23057;48.554;14.454;2023-02-28T04:42:19;-4.80;99.90
41939;DHT22;23057;48.554;14.454;2023-02-28T04:44:50;-4.80;99.90
41939;DHT22;23057;48.554;14.454;2023-02-28T04:47:21;-4.90;99.90
41939;DHT22;23057;48.554;14.454;2023-02-28T04:49:52;-4.90;99.90
41939;DHT22;23057;48.554;14.454;2023-02-28T04:52:22;-4.90;99.90
41939;DHT22;23057;48.554;14.454;2023-02-28T04:54:53;-4.90;99.90
41939;DHT22;23057;48.554;14.454;2023-02-28T04:57:24;-4.90;99.90
41939;DHT22;23057;48.554;14.454;2023-02-28T04:59:55;-4.90;99.90
41939;DHT22;23057;48.554;14.454;2023-02-28T05:02:25;-4.90;99.90
41939;DHT22;23057;48.554;14.454;2023-02-28T05:04:56;-4.90;99.90
41939;DHT22;23057;48.554;14.454;2023-02-28T05:07:27;-5.00;99.90
41939;DHT22;23057;48.554;14.454;2023-02-28T05:09:57;-5.00;99.90
41939;DHT22;23057;48.554;14.454;2023-02-28T05:12:28;-5.00;99.90
41939;DHT22;23057;48.554;14.454;2023-02-28T05:14:59;-5.00;99.90
41939;DHT22;23057;48.554;14.454;2023-02-28T05:17:31;-5.00;99.90
41939;DHT22;23057;48.554;14.454;2023-02-28T05:20:02;-5.00;99.90
41939;DHT22;23057;48.554;14.454;2023-02-28T05:22:35;-5.00;99.90
41939;DHT22;23057;48.554;14.454;2023-02-28T05:25:06;-5.00;99.90
41939;DHT22;23057;48.554;14.454;2023-02-28T05:27:49;-5.00;99.90
41939;DHT22;23057;48.554;14.454;2023-02-28T05:30:20;-5.10;99.90
41939;DHT22;23057;48.554;14.454;2023-02-28T05:32:51;-5.10;99.90
41939;DHT22;23057;48.554;14.454;2023-02-28T05:35:22;-5.00;99.90
41939;DHT22;23057;48.554;14.454;2023-02-28T05:37:53;-5.10;99.90
41939;DHT22;23057;48.554;14.454;2023-02-28T05:40:23;-5.10;99.90
41939;DHT22;23057;48.554;14.454;2023-02-28T05:42:54;-5.10;99.90
41939;DHT22;23057;48.554;14.454;2023-02-28T05:45:25;-5.10;99.90
41939;DHT22;23057;48.554;14.454;2023-02-28T05:47:56;-5.00;99.90
41939;DHT22;23057;48.554;14.454;2023-02-28T05:50:27;-5.10;99.90
41939;DHT22;23057;48.554;14.454;2023-02-28T05:52:57;-5.10;99.90
41939;DHT22;23057;48.554;14.454;2023-02-28T05:55:28;-5.10;99.90
41939;DHT22;23057;48.554;14.454;2023-02-28T05:57:59;-5.10;99.90
41939;DHT22;23057;48.554;14.454;2023-02-28T06:00:30;-5.10;99.90
41939;DHT22;23057;48.554;14.454;2023-02-28T06:03:01;-5.00;99.90
41939;DHT22;23057;48.554;14.454;2023-02-28T06:05:32;-4.60;1.00
41939;DHT22;23057;48.554;14.454;2023-02-28T06:08:03;-4.10;99.90
41939;DHT22;23057;48.554;14.454;2023-02-28T06:10:36;-3.80;1.00
41939;DHT22;23057;48.554;14.454;2023-02-28T06:13:06;-3.30;1.00
41939;DHT22;23057;48.554;14.454;2023-02-28T06:15:37;-3.00;99.90
41939;DHT22;23057;48.554;14.454;2023-02-28T06:18:08;-2.90;99.90
41939;DHT22;23057;48.554;14.454;2023-02-28T06:20:39;-2.40;92.10
41939;DHT22;23057;48.554;14.454;2023-02-28T06:23:10;-1.90;1.00
41939;DHT22;23057;48.554;14.454;2023-02-28T06:25:44;-1.40;99.90
41939;DHT22;23057;48.554;14.454;2023-02-28T06:28:15;-1.30;99.90
41939;DHT22;23057;48.554;14.454;2023-02-28T06:30:46;-0.80;99.90
41939;DHT22;23057;48.554;14.454;2023-02-28T06:33:17;-0.20;99.90
41939;DHT22;23057;48.554;14.454;2023-02-28T06:35:51;-0.40;24.60
41939;DHT22;23057;48.554;14.454;2023-02-28T06:38:22;-0.30;1.00
41939;DHT22;23057;48.554;14.454;2023-02-28T06:40:54;-0.50;1.00
41939;DHT22;23057;48.554;14.454;2023-02-28T06:43:28;-0.20;1.00
41939;DHT22;23057;48.554;14.454;2023-02-28T06:46:03;0.10;1.00
41939;DHT22;23057;48.554;14.454;2023-02-28T06:48:37;-0.30;1.00
41939;DHT22;23057;48.554;14.454;2023-02-28T06:51:09;-0.30;1.00
41939;DHT22;23057;48.554;14.454;2023-02-28T06:53:44;-0.80;1.00
41939;DHT22;23057;48.554;14.454;2023-02-28T06:56:15;-1.50;1.00
41939;DHT22;23057;48.554;14.454;2023-02-28T06:58:48;-1.40;1.00
41939;DHT22;23057;48.554;14.454;2023-02-28T07:01:20;-1.50;1.00
41939;DHT22;23057;48.554;14.454;2023-02-28T07:03:55;-1.30;1.00
41939;DHT22;23057;48.554;14.454;2023-02-28T07:06:25;-1.50;6.60
41939;DHT22;23057;48.554;14.454;2023-02-28T07:08:57;-1.10;1.00
41939;DHT22;23057;48.554;14.454;2023-02-28T07:11:28;-1.40;1.00
41939;DHT22;23057;48.554;14.454;2023-02-28T07:13:59;-1.50;7.40
41939;DHT22;23057;48.554;14.454;2023-02-28T07:16:30;-1.80;40.00
41939;DHT22;23057;48.554;14.454;2023-02-28T07:19:00;-2.00;95.30
41939;DHT22;23057;48.554;14.454;2023-02-28T07:21:31;-2.20;99.90
41939;DHT22;23057;48.554;14.454;2023-02-28T07:24:02;-2.20;99.90
41939;DHT22;23057;48.554;14.454;2023-02-28T07:26:33;-2.30;99.90
41939;DHT22;23057;48.554;14.454;2023-02-28T07:29:07;-2.20;99.90
41939;DHT22;23057;48.554;14.454;2023-02-28T07:31:38;-2.40;99.90
41939;DHT22;23057;48.554;14.454;2023-02-28T07:34:08;-2.40;99.90
41939;DHT22;23057;48.554;14.454;2023-02-28T07:36:39;-2.30;99.90
41939;DHT22;23057;48.554;14.454;2023-02-28T07:39:10;-2.30;99.90
41939;DHT22;23057;48.554;14.454;2023-02-28T07:41:41;-2.40;99.90
41939;DHT22;23057;48.554;14.454;2023-02-28T07:44:13;-2.20;99.90
41939;DHT22;23057;48.554;14.454;2023-02-28T07:46:44;-2.20;99.90
41939;DHT22;23057;48.554;14.454;2023-02-28T07:49:15;-2.40;99.90
41939;DHT22;23057;48.554;14.454;2023-02-28T07:51:46;-2.20;99.90
41939;DHT22;23057;48.554;14.454;2023-02-28T07:54:16;-2.20;99.90
41939;DHT22;23057;48.554;14.454;2023-02-28T07:56:47;-2.00;99.90
41939;DHT22;23057;48.554;14.454;2023-02-28T07:59:18;-2.10;99.90
41939;DHT22;23057;48.554;14.454;2023-02-28T08:01:49;-2.00;99.90
41939;DHT22;23057;48.554;14.454;2023-02-28T08:04:20;-1.90;99.90
41939;DHT22;23057;48.554;14.454;2023-02-28T08:06:51;-1.50;99.90
41939;DHT22;23057;48.554;14.454;2023-02-28T08:09:26;-1.60;99.90
41939;DHT22;23057;48.554;14.454;2023-02-28T08:11:57;-1.50;99.90
41939;DHT22;23057;48.554;14.454;2023-02-28T08:14:28;-1.50;99.90
41939;DHT22;23057;48.554;14.454;2023-02-28T08:16:58;-1.40;99.90
41939;DHT22;23057;48.554;14.454;2023-02-28T08:19:29;-1.10;99.90
41939;DHT22;23057;48.554;14.454;2023-02-28T08:22:01;-1.10;99.90
41939;DHT22;23057;48.554;14.454;2023-02-28T08:24:31;-1.20;99.90
41939;DHT22;23057;48.554;14.454;2023-02-28T08:27:03;-1.00;99.90
41939;DHT22;23057;48.554;14.454;2023-02-28T08:29:36;-1.00;99.90
41939;DHT22;23057;48.554;14.454;2023-02-28T08:32:08;-1.00;99.90
41939;DHT22;23057;48.554;14.454;2023-02-28T08:34:39;-0.90;99.90
41939;DHT22;23057;48.554;14.454;2023-02-28T08:37:10;-0.90;99.90
41939;DHT22;23057;48.554;14.454;2023-02-28T08:39:41;-0.80;99.90
41939;DHT22;23057;48.554;14.454;2023-02-28T08:42:12;-0.70;99.90
41939;DHT22;23057;48.554;14.454;2023-02-28T08:44:42;-0.50;99.90
41939;DHT22;23057;48.554;14.454;2023-02-28T08:47:13;-0.30;99.90
41939;DHT22;23057;48.554;14.454;2023-02-28T08:49:44;-0.30;99.90
41939;DHT22;23057;48.554;14.454;2023-02-28T08:52:15;-0.40;99.90
41939;DHT22;23057;48.554;14.454;2023-02-28T08:54:46;-0.30;99.90
41939;DHT22;23057;48.554;14.454;2023-02-28T08:57:16;-0.30;99.90
41939;DHT22;23057;48.554;14.454;2023-02-28T08:59:47;-0.60;98.50
41939;DHT22;23057;48.554;14.454;2023-02-28T09:02:18;-0.60;99.90
41939;DHT22;23057;48.554;14.454;2023-02-28T09:04:48;-0.50;99.90
41939;DHT22;23057;48.554;14.454;2023-02-28T09:07:19;-0.40;99.90
41939;DHT22;23057;48.554;14.454;2023-02-28T09:09:50;-0.10;99.90
41939;DHT22;23057;48.554;14.454;2023-02-28T09:12:24;-0.30;99.90
41939;DHT22;23057;48.554;14.454;2023-02-28T09:14:57;-0.40;99.90
41939;DHT22;23057;48.554;14.454;2023-02-28T09:17:27;-0.30;99.90
41939;DHT22;23057;48.554;14.454;2023-02-28T09:19:58;-0.40;99.90
41939;DHT22;23057;48.554;14.454;2023-02-28T09:22:29;-0.50;99.90
41939;DHT22;23057;48.554;14.454;2023-02-28T09:25:00;-0.50;99.90
41939;DHT22;23057;48.554;14.454;2023-02-28T09:27:30;-0.40;99.90
41939;DHT22;23057;48.554;14.454;2023-02-28T09:30:01;-0.30;99.90
41939;DHT22;23057;48.554;14.454;2023-02-28T09:32:32;-0.30;99.90
41939;DHT22;23057;48.554;14.454;2023-02-28T09:35:03;-0.30;99.90
41939;DHT22;23057;48.554;14.454;2023-02-28T09:37:34;-0.30;99.90
41939;DHT22;23057;48.554;14.454;2023-02-28T09:40:05;-0.40;99.90
41939;DHT22;23057;48.554;14.454;2023-02-28T09:42:36;-0.30;99.90
41939;DHT22;23057;48.554;14.454;2023-02-28T09:45:14;-0.30;99.90
41939;DHT22;23057;48.554;14.454;2023-02-28T09:47:59;-0.20;99.90
41939;DHT22;23057;48.554;14.454;2023-02-28T09:50:52;-0.30;99.90
41939;DHT22;23057;48.554;14.454;2023-02-28T09:53:34;-0.30;99.90
41939;DHT22;23057;48.554;14.454;2023-02-28T09:56:10;0.10;99.90
41939;DHT22;23057;48.554;14.454;2023-02-28T09:58:51;0.00;99.90
41939;DHT22;23057;48.554;14.454;2023-02-28T10:01:36;-0.50;99.90
41939;DHT22;23057;48.554;14.454;2023-02-28T10:10:40;-0.20;99.90
41939;DHT22;23057;48.554;14.454;2023-02-28T10:13:35;-0.40;99.90
41939;DHT22;23057;48.554;14.454;2023-02-28T10:16:36;-0.10;99.90
41939;DHT22;23057;48.554;14.454;2023-02-28T10:19:32;-0.30;99.90
41939;DHT22;23057;48.554;14.454;2023-02-28T10:22:14;-0.80;99.90
41939;DHT22;23057;48.554;14.454;2023-02-28T10:24:51;-0.60;99.90
41939;DHT22;23057;48.554;14.454;2023-02-28T10:27:30;-0.30;99.90
41939;DHT22;23057;48.554;14.454;2023-02-28T10:30:03;-0.10;99.90
41939;DHT22;23057;48.554;14.454;2023-02-28T10:32:35;-0.40;99.90
41939;DHT22;23057;48.554;14.454;2023-02-28T10:35:17;-0.20;99.90
41939;DHT22;23057;48.554;14.454;2023-02-28T10:37:56;-0.30;99.90
41939;DHT22;23057;48.554;14.454;2023-02-28T10:40:32;-0.30;99.90
41939;DHT22;23057;48.554;14.454;2023-02-28T10:45:55;0.20;99.90
41939;DHT22;23057;48.554;14.454;2023-02-28T10:48:57;0.00;99.90
41939;DHT22;23057;48.554;14.454;2023-02-28T10:51:37;0.30;99.90
41939;DHT22;23057;48.554;14.454;2023-02-28T10:54:17;0.20;99.90
41939;DHT22;23057;48.554;14.454;2023-02-28T10:57:05;0.00;99.90
41939;DHT22;23057;48.554;14.454;2023-02-28T10:59:52;0.10;99.90
41939;DHT22;23057;48.554;14.454;2023-02-28T11:02:43;0.30;99.90
41939;DHT22;23057;48.554;14.454;2023-02-28T11:05:34;0.40;99.90
41939;DHT22;23057;48.554;14.454;2023-02-28T11:10:48;0.50;99.90
41939;DHT22;23057;48.554;14.454;2023-02-28T11:13:32;0.60;99.90
41939;DHT22;23057;48.554;14.454;2023-02-28T11:16:07;0.50;99.90
41939;DHT22;23057;48.554;14.454;2023-02-28T11:18:43;0.70;99.90
41939;DHT22;23057;48.554;14.454;2023-02-28T11:21:26;0.80;99.90
41939;DHT22;23057;48.554;14.454;2023-02-28T11:24:04;0.50;99.90
41939;DHT22;23057;48.554;14.454;2023-02-28T11:26:45;0.60;99.90
41939;DHT22;23057;48.554;14.454;2023-02-28T11:34:31;0.60;99.90
41939;DHT22;23057;48.554;14.454;2023-02-28T11:37:03;0.60;99.90
41939;DHT22;23057;48.554;14.454;2023-02-28T11:39:39;0.90;99.90
41939;DHT22;23057;48.554;14.454;2023-02-28T11:45:59;0.90;99.90
41939;DHT22;23057;48.554;14.454;2023-02-28T11:49:14;0.90;99.90
41939;DHT22;23057;48.554;14.454;2023-02-28T11:55:26;1.20;99.90
41939;DHT22;23057;48.554;14.454;2023-02-28T12:01:28;1.10;99.90
41939;DHT22;23057;48.554;14.454;2023-02-28T12:08:15;0.90;99.90
41939;DHT22;23057;48.554;14.454;2023-02-28T12:27:02;0.90;99.90
41939;DHT22;23057;48.554;14.454;2023-02-28T12:32:32;0.90;99.90
41939;DHT22;23057;48.554;14.454;2023-02-28T12:35:12;1.00;99.90
41939;DHT22;23057;48.554;14.454;2023-02-28T12:38:12;0.90;99.90
41939;DHT22;23057;48.554;14.454;2023-02-28T12:43:27;1.20;99.90
41939;DHT22;23057;48.554;14.454;2023-02-28T12:49:11;0.90;99.90
41939;DHT22;23057;48.554;14.454;2023-02-28T12:51:49;0.90;99.90
41939;DHT22;23057;48.554;14.454;2023-02-28T12:54:25;0.90;99.90
41939;DHT22;23057;48.554;14.454;2023-02-28T12:57:50;0.90;99.90
41939;DHT22;23057;48.554;14.454;2023-02-28T13:10:04;0.60;99.90
41939;DHT22;23057;48.554;14.454;2023-02-28T13:12:37;0.60;1.00
41939;DHT22;23057;48.554;14.454;2023-02-28T13:15:26;0.50;99.90
41939;DHT22;23057;48.554;14.454;2023-02-28T13:17:59;0.80;1.00
41939;DHT22;23057;48.554;14.454;2023-02-28T13:20:33;0.70;99.90
41939;DHT22;23057;48.554;14.454;2023-02-28T13:23:35;0.90;1.00
41939;DHT22;23057;48.554;14.454;2023-02-28T13:34:42;0.80;1.00
41939;DHT22;23057;48.554;14.454;2023-02-28T13:37:42;1.00;1.00
41939;DHT22;23057;48.554;14.454;2023-02-28T13:40:27;0.90;1.00
41939;DHT22;23057;48.554;14.454;2023-02-28T13:43:00;0.70;99.90
41939;DHT22;23057;48.554;14.454;2023-02-28T13:45:31;0.70;99.90
41939;DHT22;23057;48.554;14.454;2023-02-28T13:48:15;0.70;1.00
41939;DHT22;23057;48.554;14.454;2023-02-28T13:50:49;0.80;1.00
41939;DHT22;23057;48.554;14.454;2023-02-28T13:53:53;0.70;99.90
41939;DHT22;23057;48.554;14.454;2023-02-28T13:56:34;0.80;1.00
41939;DHT22;23057;48.554;14.454;2023-02-28T13:59:46;0.80;1.00
41939;DHT22;23057;48.554;14.454;2023-02-28T14:05:34;0.80;99.90
41939;DHT22;23057;48.554;14.454;2023-02-28T14:08:08;0.80;99.90
41939;DHT22;23057;48.554;14.454;2023-02-28T14:10:47;0.80;99.90
41939;DHT22;23057;48.554;14.454;2023-02-28T14:13:46;0.80;99.90
41939;DHT22;23057;48.554;14.454;2023-02-28T14:16:21;0.70;99.90
41939;DHT22;23057;48.554;14.454;2023-02-28T14:19:13;0.80;99.90
41939;DHT22;23057;48.554;14.454;2023-02-28T14:37:03;0.80;99.90
41939;DHT22;23057;48.554;14.454;2023-02-28T14:39:34;0.80;99.90
41939;DHT22;23057;48.554;14.454;2023-02-28T14:42:24;0.90;99.90
41939;DHT22;23057;48.554;14.454;2023-02-28T14:45:17;0.90;99.90
41939;DHT22;23057;48.554;14.454;2023-02-28T14:47:51;0.80;99.90
41939;DHT22;23057;48.554;14.454;2023-02-28T14:50:32;0.80;99.90
41939;DHT22;23057;48.554;14.454;2023-02-28T14:53:10;0.80;99.90
41939;DHT22;23057;48.554;14.454;2023-02-28T14:55:49;0.80;99.90
41939;DHT22;23057;48.554;14.454;2023-02-28T14:58:26;0.80;99.90
41939;DHT22;23057;48.554;14.454;2023-02-28T15:01:03;0.70;99.90
41939;DHT22;23057;48.554;14.454;2023-02-28T15:03:38;0.80;99.90
41939;DHT22;23057;48.554;14.454;2023-02-28T15:06:13;0.60;99.90
41939;DHT22;23057;48.554;14.454;2023-02-28T15:08:47;0.60;99.90
41939;DHT22;23057;48.554;14.454;2023-02-28T15:11:18;0.50;99.90
41939;DHT22;23057;48.554;14.454;2023-02-28T15:13:53;0.50;99.90
41939;DHT22;23057;48.554;14.454;2023-02-28T15:21:56;0.50;99.90
41939;DHT22;23057;48.554;14.454;2023-02-28T15:24:36;0.50;99.90
41939;DHT22;23057;48.554;14.454;2023-02-28T15:27:19;0.40;99.90
41939;DHT22;23057;48.554;14.454;2023-02-28T15:29:59;0.40;1.00
41939;DHT22;23057;48.554;14.454;2023-02-28T15:32:38;0.40;99.90
41939;DHT22;23057;48.554;14.454;2023-02-28T15:40:50;0.30;1.00
41939;DHT22;23057;48.554;14.454;2023-02-28T15:43:31;0.30;1.00
41939;DHT22;23057;48.554;14.454;2023-02-28T15:46:05;0.30;1.00
41939;DHT22;23057;48.554;14.454;2023-02-28T15:48:44;0.30;1.00
41939;DHT22;23057;48.554;14.454;2023-02-28T15:51:24;0.30;1.00
41939;DHT22;23057;48.554;14.454;2023-02-28T15:54:10;0.40;1.00
41939;DHT22;23057;48.554;14.454;2023-02-28T15:56:57;0.40;1.00
41939;DHT22;23057;48.554;14.454;2023-02-28T15:59:38;0.40;1.00
41939;DHT22;23057;48.554;14.454;2023-02-28T16:07:39;0.30;1.00
41939;DHT22;23057;48.554;14.454;2023-02-28T16:10:13;0.30;1.00
41939;DHT22;23057;48.554;14.454;2023-02-28T16:12:44;0.30;1.00
41939;DHT22;23057;48.554;14.454;2023-02-28T16:15:19;0.30;1.00
41939;DHT22;23057;48.554;14.454;2023-02-28T16:17:55;0.20;99.90
41939;DHT22;23057;48.554;14.454;2023-02-28T16:20:28;0.30;1.00
41939;DHT22;23057;48.554;14.454;2023-02-28T16:23:00;0.30;1.00
41939;DHT22;23057;48.554;14.454;2023-02-28T16:25:37;0.20;1.00
41939;DHT22;23057;48.554;14.454;2023-02-28T16:28:30;0.20;1.00
41939;DHT22;23057;48.554;14.454;2023-02-28T16:31:06;0.20;1.00
41939;DHT22;23057;48.554;14.454;2023-02-28T16:33:37;0.20;1.00
41939;DHT22;23057;48.554;14.454;2023-02-28T16:36:10;0.20;1.00
41939;DHT22;23057;48.554;14.454;2023-02-28T16:38:45;0.20;1.00
41939;DHT22;23057;48.554;14.454;2023-02-28T16:41:17;0.10;1.00
41939;DHT22;23057;48.554;14.454;2023-02-28T16:43:53;0.20;1.00
41939;DHT22;23057;48.554;14.454;2023-02-28T16:46:31;0.20;1.00
41939;DHT22;23057;48.554;14.454;2023-02-28T16:49:07;0.10;1.00
41939;DHT22;23057;48.554;14.454;2023-02-28T16:51:42;0.10;1.00
41939;DHT22;23057;48.554;14.454;2023-02-28T16:54:13;0.10;1.00
41939;DHT22;23057;48.554;14.454;2023-02-28T16:56:45;0.10;1.00
41939;DHT22;23057;48.554;14.454;2023-02-28T16:59:19;0.10;1.00
41939;DHT22;23057;48.554;14.454;2023-02-28T17:01:55;0.00;1.00
41939;DHT22;23057;48.554;14.454;2023-02-28T17:04:27;0.00;1.00
41939;DHT22;23057;48.554;14.454;2023-02-28T17:06:58;0.10;1.00
41939;DHT22;23057;48.554;14.454;2023-02-28T17:09:29;0.00;1.00
41939;DHT22;23057;48.554;14.454;2023-02-28T17:12:00;0.00;1.00
41939;DHT22;23057;48.554;14.454;2023-02-28T17:14:30;0.00;1.00
41939;DHT22;23057;48.554;14.454;2023-02-28T17:17:01;0.00;1.00
41939;DHT22;23057;48.554;14.454;2023-02-28T17:19:34;-0.10;1.00
41939;DHT22;23057;48.554;14.454;2023-02-28T17:22:07;-0.10;1.00
41939;DHT22;23057;48.554;14.454;2023-02-28T17:24:38;-0.10;1.00
41939;DHT22;23057;48.554;14.454;2023-02-28T17:27:11;-0.10;1.00
41939;DHT22;23057;48.554;14.454;2023-02-28T17:29:43;-0.10;21.10
41939;DHT22;23057;48.554;14.454;2023-02-28T17:32:14;-0.20;31.50
41939;DHT22;23057;48.554;14.454;2023-02-28T17:34:44;-0.10;51.20
41939;DHT22;23057;48.554;14.454;2023-02-28T17:37:16;-0.20;91.60
41939;DHT22;23057;48.554;14.454;2023-02-28T17:39:46;-0.20;59.20
41939;DHT22;23057;48.554;14.454;2023-02-28T17:42:17;-0.20;35.20
41939;DHT22;23057;48.554;14.454;2023-02-28T17:44:48;-0.20;55.60
41939;DHT22;23057;48.554;14.454;2023-02-28T17:47:18;-0.30;56.00
41939;DHT22;23057;48.554;14.454;2023-02-28T17:49:49;-0.20;72.20
41939;DHT22;23057;48.554;14.454;2023-02-28T17:52:20;-0.30;77.50
41939;DHT22;23057;48.554;14.454;2023-02-28T17:54:52;-0.30;85.30
41939;DHT22;23057;48.554;14.454;2023-02-28T17:57:23;-0.30;71.80
41939;DHT22;23057;48.554;14.454;2023-02-28T17:59:53;-0.30;99.90
41939;DHT22;23057;48.554;14.454;2023-02-28T18:02:24;-0.30;82.30
41939;DHT22;23057;48.554;14.454;2023-02-28T18:04:56;-0.30;79.60
41939;DHT22;23057;48.554;14.454;2023-02-28T18:07:28;-0.30;97.30
41939;DHT22;23057;48.554;14.454;2023-02-28T18:09:58;-0.40;79.60
41939;DHT22;23057;48.554;14.454;2023-02-28T18:12:29;-0.30;97.40
41939;DHT22;23057;48.554;14.454;2023-02-28T18:15:01;-0.30;99.90
41939;DHT22;23057;48.554;14.454;2023-02-28T18:17:32;-0.40;99.90
41939;DHT22;23057;48.554;14.454;2023-02-28T18:20:03;-0.40;99.90
41939;DHT22;23057;48.554;14.454;2023-02-28T18:22:38;-0.40;99.90
41939;DHT22;23057;48.554;14.454;2023-02-28T18:25:10;-0.40;99.90
41939;DHT22;23057;48.554;14.454;2023-02-28T18:27:46;-0.40;99.90
41939;DHT22;23057;48.554;14.454;2023-02-28T18:30:30;-0.40;99.90
41939;DHT22;23057;48.554;14.454;2023-02-28T18:33:06;-0.50;99.90
41939;DHT22;23057;48.554;14.454;2023-02-28T18:35:37;-0.40;99.90
41939;DHT22;23057;48.554;14.454;2023-02-28T18:40:52;-0.40;99.90